sensor_id;sensor_type;location;lat;lon;timestamp;pressure;altitude;pressure_sealevel;temperature;humidity
28004;BME280;15330;51.234;6.754;2023-02-20T00:01:58;102199.69;;;6.09;100.00
28004;BME280;15330;51.234;6.754;2023-02-20T00:04:23;102193.34;;;6.11;100.00
28004;BME280;15330;51.234;6.754;2023-02-20T00:06:48;102187.38;;;6.08;100.00
28004;BME280;15330;51.234;6.754;2023-02-20T00:09:14;102185.47;;;6.10;100.00
28004;BME280;15330;51.234;6.754;2023-02-20T00:11:40;102189.47;;;6.03;100.00
28004;BME280;15330;51.234;6.754;2023-02-20T00:14:06;102177.84;;;6.18;100.00
28004;BME280;15330;51.234;6.754;2023-02-20T00:16:31;102174.69;;;5.99;100.00
28004;BME280;15330;51.234;6.754;2023-02-20T00:18:57;102169.91;;;6.04;100.00
28004;BME280;15330;51.234;6.754;2023-02-20T00:21:22;102181.09;;;6.09;100.00
28004;BME280;15330;51.234;6.754;2023-02-20T00:23:51;102187.88;;;6.00;100.00
28004;BME280;15330;51.234;6.754;2023-02-20T00:26:16;102173.34;;;6.06;100.00
28004;BME280;15330;51.234;6.754;2023-02-20T00:28:42;102176.94;;;6.05;100.00
28004;BME280;15330;51.234;6.754;2023-02-20T00:31:12;102168.47;;;6.12;100.00
28004;BME280;15330;51.234;6.754;2023-02-20T00:33:37;102172.56;;;6.04;100.00
28004;BME280;15330;51.234;6.754;2023-02-20T00:36:04;102175.22;;;6.04;100.00
28004;BME280;15330;51.234;6.754;2023-02-20T00:38:29;102170.00;;;6.02;100.00
28004;BME280;15330;51.234;6.754;2023-02-20T00:40:54;102167.47;;;6.01;100.00
28004;BME280;15330;51.234;6.754;2023-02-20T00:43:20;102172.38;;;6.07;100.00
28004;BME280;15330;51.234;6.754;2023-02-20T00:45:45;102166.03;;;6.09;100.00
28004;BME280;15330;51.234;6.754;2023-02-20T00:48:11;102173.00;;;5.98;100.00
28004;BME280;15330;51.234;6.754;2023-02-20T00:50:36;102167.59;;;5.99;100.00
28004;BME280;15330;51.234;6.754;2023-02-20T00:53:02;102164.31;;;6.08;100.00
28004;BME280;15330;51.234;6.754;2023-02-20T00:55:27;102153.16;;;6.16;100.00
28004;BME280;15330;51.234;6.754;2023-02-20T00:57:53;102145.16;;;6.03;100.00
28004;BME280;15330;51.234;6.754;2023-02-20T01:00:25;102144.69;;;6.11;100.00
28004;BME280;15330;51.234;6.754;2023-02-20T01:02:51;102129.38;;;5.87;100.00
28004;BME280;15330;51.234;6.754;2023-02-20T01:05:16;102125.72;;;6.03;100.00
28004;BME280;15330;51.234;6.754;2023-02-20T01:07:42;102132.13;;;6.13;100.00
28004;BME280;15330;51.234;6.754;2023-02-20T01:10:09;102130.00;;;6.18;100.00
28004;BME280;15330;51.234;6.754;2023-02-20T01:12:35;102113.59;;;5.99;100.00
28004;BME280;15330;51.234;6.754;2023-02-20T01:15:00;102117.97;;;6.00;100.00
28004;BME280;15330;51.234;6.754;2023-02-20T01:17:26;102112.13;;;6.07;100.00
28004;BME280;15330;51.234;6.754;2023-02-20T01:19:51;102109.19;;;6.12;100.00
28004;BME280;15330;51.234;6.754;2023-02-20T01:22:16;102096.16;;;5.95;100.00
28004;BME280;15330;51.234;6.754;2023-02-20T01:24:42;102095.78;;;6.01;100.00
28004;BME280;15330;51.234;6.754;2023-02-20T01:27:08;102103.22;;;6.08;100.00
28004;BME280;15330;51.234;6.754;2023-02-20T01:29:33;102093.22;;;5.99;100.00
28004;BME280;15330;51.234;6.754;2023-02-20T01:31:58;102073.25;;;6.06;100.00
28004;BME280;15330;51.234;6.754;2023-02-20T01:34:24;102079.13;;;6.11;100.00
28004;BME280;15330;51.234;6.754;2023-02-20T01:36:51;102085.16;;;6.01;100.00
28004;BME280;15330;51.234;6.754;2023-02-20T01:39:26;102079.28;;;5.96;100.00
28004;BME280;15330;51.234;6.754;2023-02-20T01:41:56;102073.56;;;6.02;100.00
28004;BME280;15330;51.234;6.754;2023-02-20T01:44:27;102076.94;;;5.91;100.00
28004;BME280;15330;51.234;6.754;2023-02-20T01:46:56;102087.06;;;5.84;100.00
28004;BME280;15330;51.234;6.754;2023-02-20T01:49:27;102091.09;;;6.04;100.00
28004;BME280;15330;51.234;6.754;2023-02-20T01:51:59;102094.69;;;5.91;100.00
28004;BME280;15330;51.234;6.754;2023-02-20T01:54:27;102092.88;;;5.91;100.00
28004;BME280;15330;51.234;6.754;2023-02-20T01:56:56;102087.47;;;6.05;100.00
28004;BME280;15330;51.234;6.754;2023-02-20T01:59:24;102080.97;;;5.97;100.00
28004;BME280;15330;51.234;6.754;2023-02-20T02:01:51;102076.00;;;6.05;100.00
28004;BME280;15330;51.234;6.754;2023-02-20T02:04:17;102079.44;;;6.19;100.00
28004;BME280;15330;51.234;6.754;2023-02-20T02:06:45;102074.94;;;6.07;100.00
28004;BME280;15330;51.234;6.754;2023-02-20T02:11:48;102059.13;;;6.18;100.00
28004;BME280;15330;51.234;6.754;2023-02-20T02:14:14;102054.34;;;6.11;100.00
28004;BME280;15330;51.234;6.754;2023-02-20T02:16:57;102054.75;;;6.05;100.00
28004;BME280;15330;51.234;6.754;2023-02-20T02:26:07;102043.81;;;5.97;100.00
28004;BME280;15330;51.234;6.754;2023-02-20T02:41:56;102010.06;;;5.84;100.00
28004;BME280;15330;51.234;6.754;2023-02-20T02:47:05;101997.28;;;5.91;100.00
28004;BME280;15330;51.234;6.754;2023-02-20T02:52:13;102015.53;;;5.96;100.00
28004;BME280;15330;51.234;6.754;2023-02-20T02:54:59;102003.03;;;5.83;100.00
28004;BME280;15330;51.234;6.754;2023-02-20T02:57:25;102005.75;;;5.96;100.00
28004;BME280;15330;51.234;6.754;2023-02-20T03:00:00;102011.19;;;5.95;100.00
28004;BME280;15330;51.234;6.754;2023-02-20T03:02:44;102016.38;;;5.96;100.00
28004;BME280;15330;51.234;6.754;2023-02-20T03:05:14;102008.94;;;5.88;100.00
28004;BME280;15330;51.234;6.754;2023-02-20T03:07:42;102008.09;;;5.88;100.00
28004;BME280;15330;51.234;6.754;2023-02-20T03:10:12;102007.16;;;5.89;100.00
28004;BME280;15330;51.234;6.754;2023-02-20T03:12:48;102006.09;;;5.92;100.00
28004;BME280;15330;51.234;6.754;2023-02-20T03:15:29;102005.75;;;5.96;100.00
28004;BME280;15330;51.234;6.754;2023-02-20T03:20:35;101990.72;;;5.82;100.00
28004;BME280;15330;51.234;6.754;2023-02-20T03:23:03;101996.16;;;5.81;100.00
28004;BME280;15330;51.234;6.754;2023-02-20T03:25:36;101987.34;;;5.80;100.00
28004;BME280;15330;51.234;6.754;2023-02-20T03:28:24;101979.41;;;5.93;100.00
28004;BME280;15330;51.234;6.754;2023-02-20T03:30:59;101974.94;;;5.81;100.00
28004;BME280;15330;51.234;6.754;2023-02-20T03:33:42;101976.38;;;5.72;100.00
28004;BME280;15330;51.234;6.754;2023-02-20T03:36:34;101964.81;;;5.86;100.00
28004;BME280;15330;51.234;6.754;2023-02-20T03:39:27;101976.72;;;5.80;100.00
28004;BME280;15330;51.234;6.754;2023-02-20T03:42:14;101978.53;;;5.80;100.00
28004;BME280;15330;51.234;6.754;2023-02-20T03:44:59;101982.88;;;5.81;100.00
28004;BME280;15330;51.234;6.754;2023-02-20T03:47:27;101977.16;;;5.87;100.00
28004;BME280;15330;51.234;6.754;2023-02-20T03:49:54;101966.72;;;5.84;100.00
28004;BME280;15330;51.234;6.754;2023-02-20T03:52:21;101959.94;;;5.80;100.00
28004;BME280;15330;51.234;6.754;2023-02-20T03:54:47;101971.84;;;5.87;100.00
28004;BME280;15330;51.234;6.754;2023-02-20T03:57:28;101967.22;;;5.91;100.00
28004;BME280;15330;51.234;6.754;2023-02-20T04:00:02;101955.06;;;5.86;100.00
28004;BME280;15330;51.234;6.754;2023-02-20T04:02:40;101964.06;;;5.84;100.00
28004;BME280;15330;51.234;6.754;2023-02-20T04:05:16;101972.38;;;5.92;100.00
28004;BME280;15330;51.234;6.754;2023-02-20T04:07:49;101965.59;;;5.88;100.00
28004;BME280;15330;51.234;6.754;2023-02-20T04:10:20;101967.25;;;5.76;100.00
28004;BME280;15330;51.234;6.754;2023-02-20T04:12:48;101962.03;;;5.75;100.00
28004;BME280;15330;51.234;6.754;2023-02-20T04:15:16;101970.44;;;5.81;100.00
28004;BME280;15330;51.234;6.754;2023-02-20T04:17:49;101973.22;;;5.80;100.00
28004;BME280;15330;51.234;6.754;2023-02-20T04:20:16;101970.22;;;5.72;100.00
28004;BME280;15330;51.234;6.754;2023-02-20T04:22:44;101965.34;;;5.78;100.00
28004;BME280;15330;51.234;6.754;2023-02-20T04:27:42;101968.63;;;5.82;100.00
28004;BME280;15330;51.234;6.754;2023-02-20T04:30:08;101965.97;;;5.82;100.00
28004;BME280;15330;51.234;6.754;2023-02-20T04:32:34;101960.47;;;5.85;100.00
28004;BME280;15330;51.234;6.754;2023-02-20T04:35:00;101960.94;;;5.92;100.00
28004;BME280;15330;51.234;6.754;2023-02-20T04:37:25;101957.38;;;5.78;100.00
28004;BME280;15330;51.234;6.754;2023-02-20T04:39:50;101959.09;;;5.79;100.00
28004;BME280;15330;51.234;6.754;2023-02-20T04:42:16;101959.50;;;5.73;100.00
28004;BME280;15330;51.234;6.754;2023-02-20T04:44:41;101956.53;;;5.78;100.00
28004;BME280;15330;51.234;6.754;2023-02-20T04:47:12;101949.31;;;5.80;100.00
28004;BME280;15330;51.234;6.754;2023-02-20T04:49:37;101951.84;;;5.69;100.00
28004;BME280;15330;51.234;6.754;2023-02-20T04:52:03;101956.97;;;5.84;100.00
28004;BME280;15330;51.234;6.754;2023-02-20T04:54:29;101954.09;;;5.87;100.00
28004;BME280;15330;51.234;6.754;2023-02-20T04:56:54;101952.97;;;5.92;100.00
28004;BME280;15330;51.234;6.754;2023-02-20T04:59:19;101958.66;;;5.85;100.00
28004;BME280;15330;51.234;6.754;2023-02-20T05:01:45;101952.59;;;5.83;100.00
28004;BME280;15330;51.234;6.754;2023-02-20T05:04:14;101945.47;;;5.84;100.00
28004;BME280;15330;51.234;6.754;2023-02-20T05:06:47;101953.25;;;5.87;100.00
28004;BME280;15330;51.234;6.754;2023-02-20T05:09:12;101940.16;;;5.84;100.00
28004;BME280;15330;51.234;6.754;2023-02-20T05:11:39;101936.66;;;5.83;100.00
28004;BME280;15330;51.234;6.754;2023-02-20T05:14:05;101935.09;;;5.81;100.00
28004;BME280;15330;51.234;6.754;2023-02-20T05:16:31;101938.25;;;5.73;100.00
28004;BME280;15330;51.234;6.754;2023-02-20T05:18:56;101936.34;;;5.75;100.00
28004;BME280;15330;51.234;6.754;2023-02-20T05:21:22;101942.94;;;5.82;100.00
28004;BME280;15330;51.234;6.754;2023-02-20T05:24:06;101939.31;;;5.83;100.00
28004;BME280;15330;51.234;6.754;2023-02-20T05:26:31;101940.41;;;5.81;100.00
28004;BME280;15330;51.234;6.754;2023-02-20T05:28:57;101942.72;;;5.85;100.00
28004;BME280;15330;51.234;6.754;2023-02-20T05:31:22;101937.41;;;5.85;100.00
28004;BME280;15330;51.234;6.754;2023-02-20T05:33:47;101953.78;;;5.79;100.00
28004;BME280;15330;51.234;6.754;2023-02-20T05:36:13;101948.03;;;5.85;100.00
28004;BME280;15330;51.234;6.754;2023-02-20T05:38:38;101945.47;;;5.84;100.00
28004;BME280;15330;51.234;6.754;2023-02-20T05:41:05;101948.03;;;5.85;100.00
28004;BME280;15330;51.234;6.754;2023-02-20T05:43:31;101944.31;;;5.75;100.00
28004;BME280;15330;51.234;6.754;2023-02-20T05:45:56;101951.75;;;5.83;100.00
28004;BME280;15330;51.234;6.754;2023-02-20T05:48:21;101954.84;;;5.77;100.00
28004;BME280;15330;51.234;6.754;2023-02-20T05:50:47;101937.41;;;5.85;100.00
28004;BME280;15330;51.234;6.754;2023-02-20T05:53:14;101948.38;;;5.94;100.00
28004;BME280;15330;51.234;6.754;2023-02-20T05:55:40;101940.22;;;5.97;100.00
28004;BME280;15330;51.234;6.754;2023-02-20T05:58:05;101926.69;;;5.87;100.00
28004;BME280;15330;51.234;6.754;2023-02-20T06:00:30;101938.00;;;5.91;100.00
28004;BME280;15330;51.234;6.754;2023-02-20T06:02:56;101940.06;;;5.85;100.00
28004;BME280;15330;51.234;6.754;2023-02-20T06:05:21;101937.75;;;5.94;100.00
28004;BME280;15330;51.234;6.754;2023-02-20T06:07:48;101938.50;;;5.96;100.00
28004;BME280;15330;51.234;6.754;2023-02-20T06:10:16;101924.72;;;5.91;100.00
28004;BME280;15330;51.234;6.754;2023-02-20T06:12:42;101926.84;;;5.98;100.00
28004;BME280;15330;51.234;6.754;2023-02-20T06:15:08;101939.72;;;5.92;100.00
28004;BME280;15330;51.234;6.754;2023-02-20T06:17:33;101938.50;;;5.96;100.00
28004;BME280;15330;51.234;6.754;2023-02-20T06:19:58;101939.72;;;5.92;100.00
28004;BME280;15330;51.234;6.754;2023-02-20T06:22:24;101934.47;;;6.03;100.00
28004;BME280;15330;51.234;6.754;2023-02-20T06:24:49;101927.66;;;5.86;100.00
28004;BME280;15330;51.234;6.754;2023-02-20T06:27:16;101936.56;;;5.85;100.00
28004;BME280;15330;51.234;6.754;2023-02-20T06:29:42;101932.22;;;5.84;100.00
28004;BME280;15330;51.234;6.754;2023-02-20T06:32:07;101935.00;;;5.95;100.00
28004;BME280;15330;51.234;6.754;2023-02-20T06:34:33;101949.69;;;6.01;100.00
28004;BME280;15330;51.234;6.754;2023-02-20T06:37:00;101953.78;;;5.79;100.00
28004;BME280;15330;51.234;6.754;2023-02-20T06:39:27;101967.44;;;5.73;100.00
28004;BME280;15330;51.234;6.754;2023-02-20T06:41:53;101971.94;;;5.85;100.00
28004;BME280;15330;51.234;6.754;2023-02-20T06:44:19;101968.97;;;5.77;100.00
28004;BME280;15330;51.234;6.754;2023-02-20T06:46:44;101970.09;;;6.00;100.00
28004;BME280;15330;51.234;6.754;2023-02-20T06:49:10;101967.81;;;5.94;100.00
28004;BME280;15330;51.234;6.754;2023-02-20T06:51:35;101975.28;;;5.89;100.00
28004;BME280;15330;51.234;6.754;2023-02-20T06:54:02;101975.22;;;5.76;100.00
28004;BME280;15330;51.234;6.754;2023-02-20T06:56:31;101977.69;;;5.79;100.00
28004;BME280;15330;51.234;6.754;2023-02-20T06:58:57;101978.09;;;5.86;100.00
28004;BME280;15330;51.234;6.754;2023-02-20T07:01:25;101970.81;;;5.89;100.00
28004;BME280;15330;51.234;6.754;2023-02-20T07:03:53;101978.25;;;5.97;100.00
28004;BME280;15330;51.234;6.754;2023-02-20T07:06:20;101976.22;;;5.88;100.00
28004;BME280;15330;51.234;6.754;2023-02-20T07:08:45;101978.78;;;5.89;100.00
28004;BME280;15330;51.234;6.754;2023-02-20T07:11:12;101979.06;;;5.85;100.00
28004;BME280;15330;51.234;6.754;2023-02-20T07:13:38;101989.81;;;5.96;100.00
28004;BME280;15330;51.234;6.754;2023-02-20T07:16:03;101987.59;;;6.03;100.00
28004;BME280;15330;51.234;6.754;2023-02-20T07:18:29;101989.72;;;5.98;100.00
28004;BME280;15330;51.234;6.754;2023-02-20T07:20:54;101992.91;;;6.03;100.00
28004;BME280;15330;51.234;6.754;2023-02-20T07:23:21;101987.16;;;5.96;100.00
28004;BME280;15330;51.234;6.754;2023-02-20T07:25:46;101985.78;;;6.03;100.00
28004;BME280;15330;51.234;6.754;2023-02-20T07:28:13;101988.56;;;6.02;100.00
28004;BME280;15330;51.234;6.754;2023-02-20T07:30:39;101984.09;;;5.89;100.00
28004;BME280;15330;51.234;6.754;2023-02-20T07:33:04;101985.38;;;5.97;100.00
28004;BME280;15330;51.234;6.754;2023-02-20T07:35:29;101974.53;;;6.00;100.00
28004;BME280;15330;51.234;6.754;2023-02-20T07:37:55;101980.59;;;6.02;100.00
28004;BME280;15330;51.234;6.754;2023-02-20T07:40:20;101971.56;;;6.04;100.00
28004;BME280;15330;51.234;6.754;2023-02-20T07:42:46;101981.22;;;6.05;100.00
28004;BME280;15330;51.234;6.754;2023-02-20T07:45:11;101986.44;;;6.07;100.00
28004;BME280;15330;51.234;6.754;2023-02-20T07:47:37;101984.31;;;5.99;100.00
28004;BME280;15330;51.234;6.754;2023-02-20T07:50:02;101981.88;;;6.09;100.00
28004;BME280;15330;51.234;6.754;2023-02-20T07:52:28;101977.81;;;6.03;100.00
28004;BME280;15330;51.234;6.754;2023-02-20T07:54:53;101987.16;;;6.47;100.00
28004;BME280;15330;51.234;6.754;2023-02-20T07:57:19;101985.75;;;6.67;100.00
28004;BME280;15330;51.234;6.754;2023-02-20T07:59:44;101976.56;;;6.21;100.00
28004;BME280;15330;51.234;6.754;2023-02-20T08:02:09;101978.88;;;6.39;100.00
28004;BME280;15330;51.234;6.754;2023-02-20T08:04:35;101981.44;;;6.28;100.00
28004;BME280;15330;51.234;6.754;2023-02-20T08:07:00;101979.94;;;6.23;100.00
28004;BME280;15330;51.234;6.754;2023-02-20T08:09:25;101972.09;;;6.22;100.00
28004;BME280;15330;51.234;6.754;2023-02-20T08:11:51;101988.78;;;6.24;100.00
28004;BME280;15330;51.234;6.754;2023-02-20T08:14:17;101986.97;;;6.24;100.00
28004;BME280;15330;51.234;6.754;2023-02-20T08:16:42;101982.75;;;6.22;100.00
28004;BME280;15330;51.234;6.754;2023-02-20T08:19:07;101973.16;;;6.32;100.00
28004;BME280;15330;51.234;6.754;2023-02-20T08:21:33;101978.47;;;6.32;100.00
28004;BME280;15330;51.234;6.754;2023-02-20T08:23:58;101980.19;;;6.33;100.00
28004;BME280;15330;51.234;6.754;2023-02-20T08:26:24;101978.47;;;6.19;100.00
28004;BME280;15330;51.234;6.754;2023-02-20T08:28:50;101979.84;;;6.38;100.00
28004;BME280;15330;51.234;6.754;2023-02-20T08:31:16;101970.16;;;6.37;100.00
28004;BME280;15330;51.234;6.754;2023-02-20T08:33:42;101969.97;;;6.40;100.00
28004;BME280;15330;51.234;6.754;2023-02-20T08:36:08;101979.50;;;6.55;100.00
28004;BME280;15330;51.234;6.754;2023-02-20T08:38:35;101983.00;;;6.55;100.00
28004;BME280;15330;51.234;6.754;2023-02-20T08:41:05;101976.53;;;6.47;100.00
28004;BME280;15330;51.234;6.754;2023-02-20T08:43:32;101969.13;;;6.39;100.00
28004;BME280;15330;51.234;6.754;2023-02-20T08:45:58;101971.13;;;6.36;100.00
28004;BME280;15330;51.234;6.754;2023-02-20T08:48:23;101971.88;;;6.50;100.00
28004;BME280;15330;51.234;6.754;2023-02-20T08:50:48;101965.81;;;6.48;100.00
28004;BME280;15330;51.234;6.754;2023-02-20T08:53:14;101965.91;;;6.47;100.00
28004;BME280;15330;51.234;6.754;2023-02-20T08:55:40;101975.69;;;6.59;100.00
28004;BME280;15330;51.234;6.754;2023-02-20T08:58:06;101972.81;;;6.49;100.00
28004;BME280;15330;51.234;6.754;2023-02-20T09:00:32;101974.06;;;6.56;100.00
28004;BME280;15330;51.234;6.754;2023-02-20T09:02:57;101966.28;;;6.66;100.00
28004;BME280;15330;51.234;6.754;2023-02-20T09:05:24;101966.94;;;6.70;100.00
28004;BME280;15330;51.234;6.754;2023-02-20T09:07:49;101969.91;;;6.65;100.00
28004;BME280;15330;51.234;6.754;2023-02-20T09:10:18;101969.91;;;6.65;100.00
28004;BME280;15330;51.234;6.754;2023-02-20T09:12:44;101974.06;;;6.69;100.00
28004;BME280;15330;51.234;6.754;2023-02-20T09:15:09;101977.28;;;6.61;100.00
28004;BME280;15330;51.234;6.754;2023-02-20T09:17:35;101971.03;;;6.86;100.00
28004;BME280;15330;51.234;6.754;2023-02-20T09:20:01;101975.50;;;6.86;100.00
28004;BME280;15330;51.234;6.754;2023-02-20T09:22:26;101975.63;;;6.84;100.00
28004;BME280;15330;51.234;6.754;2023-02-20T09:24:53;101970.31;;;6.84;100.00
28004;BME280;15330;51.234;6.754;2023-02-20T09:27:19;101959.06;;;6.68;100.00
28004;BME280;15330;51.234;6.754;2023-02-20T09:29:45;101962.25;;;6.73;100.00
28004;BME280;15330;51.234;6.754;2023-02-20T09:32:12;101970.53;;;6.81;100.00
28004;BME280;15330;51.234;6.754;2023-02-20T09:34:38;101975.28;;;6.89;100.00
28004;BME280;15330;51.234;6.754;2023-02-20T09:37:04;101984.66;;;6.94;100.00
28004;BME280;15330;51.234;6.754;2023-02-20T09:39:30;101984.13;;;6.89;100.00
28004;BME280;15330;51.234;6.754;2023-02-20T09:47:20;101980.22;;;7.06;100.00
28004;BME280;15330;51.234;6.754;2023-02-20T09:49:47;101993.22;;;6.98;100.00
28004;BME280;15330;51.234;6.754;2023-02-20T09:52:14;101987.13;;;7.09;100.00
28004;BME280;15330;51.234;6.754;2023-02-20T09:54:50;101981.63;;;6.99;100.00
28004;BME280;15330;51.234;6.754;2023-02-20T09:57:22;101989.00;;;6.95;100.00
28004;BME280;15330;51.234;6.754;2023-02-20T09:59:58;101985.44;;;7.08;100.00
28004;BME280;15330;51.234;6.754;2023-02-20T10:02:30;101992.44;;;7.09;100.00
28004;BME280;15330;51.234;6.754;2023-02-20T10:05:01;101985.00;;;7.14;100.00
28004;BME280;15330;51.234;6.754;2023-02-20T10:07:38;101990.06;;;7.17;100.00
28004;BME280;15330;51.234;6.754;2023-02-20T10:10:19;101983.41;;;7.11;100.00
28004;BME280;15330;51.234;6.754;2023-02-20T10:15:37;101986.91;;;7.12;100.00
28004;BME280;15330;51.234;6.754;2023-02-20T10:29:45;101974.31;;;7.26;100.00
28004;BME280;15330;51.234;6.754;2023-02-20T10:32:35;101978.03;;;7.24;100.00
28004;BME280;15330;51.234;6.754;2023-02-20T10:35:12;101971.13;;;7.21;100.00
28004;BME280;15330;51.234;6.754;2023-02-20T10:37:42;101974.59;;;7.34;100.00
28004;BME280;15330;51.234;6.754;2023-02-20T10:42:54;101971.75;;;7.25;100.00
28004;BME280;15330;51.234;6.754;2023-02-20T10:48:34;101964.00;;;7.22;100.00
28004;BME280;15330;51.234;6.754;2023-02-20T10:51:07;101967.88;;;7.29;100.00
28004;BME280;15330;51.234;6.754;2023-02-20T10:53:41;101958.88;;;7.43;100.00
28004;BME280;15330;51.234;6.754;2023-02-20T10:59:16;101962.44;;;7.30;100.00
28004;BME280;15330;51.234;6.754;2023-02-20T11:01:45;101967.16;;;7.27;100.00
28004;BME280;15330;51.234;6.754;2023-02-20T11:04:15;101963.81;;;7.36;100.00
28004;BME280;15330;51.234;6.754;2023-02-20T11:06:45;101958.34;;;7.26;100.00
28004;BME280;15330;51.234;6.754;2023-02-20T11:09:12;101953.22;;;7.47;100.00
28004;BME280;15330;51.234;6.754;2023-02-20T11:11:45;101925.38;;;7.51;100.00
28004;BME280;15330;51.234;6.754;2023-02-20T11:14:41;101929.75;;;7.52;100.00
28004;BME280;15330;51.234;6.754;2023-02-20T11:17:12;101917.63;;;7.48;100.00
28004;BME280;15330;51.234;6.754;2023-02-20T11:19:56;101908.53;;;7.40;100.00
28004;BME280;15330;51.234;6.754;2023-02-20T11:22:44;101902.78;;;7.57;100.00
28004;BME280;15330;51.234;6.754;2023-02-20T11:25:25;101909.44;;;7.62;100.00
28004;BME280;15330;51.234;6.754;2023-02-20T11:27:55;101906.16;;;7.59;100.00
28004;BME280;15330;51.234;6.754;2023-02-20T11:33:01;101915.84;;;7.60;100.00
28004;BME280;15330;51.234;6.754;2023-02-20T11:35:31;101920.72;;;7.66;100.00
28004;BME280;15330;51.234;6.754;2023-02-20T11:40:38;101917.50;;;7.50;100.00
28004;BME280;15330;51.234;6.754;2023-02-20T11:45:36;101905.44;;;7.57;100.00
28004;BME280;15330;51.234;6.754;2023-02-20T11:48:07;101892.47;;;7.52;100.00
28004;BME280;15330;51.234;6.754;2023-02-20T11:53:30;101901.97;;;7.32;100.00
28004;BME280;15330;51.234;6.754;2023-02-20T11:58:34;101901.28;;;7.42;100.00
28004;BME280;15330;51.234;6.754;2023-02-20T12:00:59;101897.66;;;7.43;100.00
28004;BME280;15330;51.234;6.754;2023-02-20T12:03:27;101904.31;;;7.37;100.00
28004;BME280;15330;51.234;6.754;2023-02-20T12:05:54;101898.47;;;7.32;100.00
28004;BME280;15330;51.234;6.754;2023-02-20T12:10:58;101892.28;;;7.31;100.00
28004;BME280;15330;51.234;6.754;2023-02-20T12:13:25;101885.69;;;7.37;100.00
28004;BME280;15330;51.234;6.754;2023-02-20T12:15:59;101872.09;;;7.40;100.00
28004;BME280;15330;51.234;6.754;2023-02-20T12:18:35;101880.25;;;7.50;100.00
28004;BME280;15330;51.234;6.754;2023-02-20T12:24:05;101883.59;;;7.41;100.00
28004;BME280;15330;51.234;6.754;2023-02-20T12:32:38;101896.94;;;7.52;100.00
28004;BME280;15330;51.234;6.754;2023-02-20T12:37:31;101867.78;;;7.50;100.00
28004;BME280;15330;51.234;6.754;2023-02-20T12:48:27;101875.16;;;7.47;100.00
28004;BME280;15330;51.234;6.754;2023-02-20T12:51:35;101875.16;;;7.47;100.00
28004;BME280;15330;51.234;6.754;2023-02-20T12:54:16;101877.22;;;7.43;100.00
28004;BME280;15330;51.234;6.754;2023-02-20T12:59:30;101859.19;;;7.47;100.00
28004;BME280;15330;51.234;6.754;2023-02-20T13:02:14;101850.47;;;7.45;100.00
28004;BME280;15330;51.234;6.754;2023-02-20T13:04:45;101842.50;;;7.45;100.00
28004;BME280;15330;51.234;6.754;2023-02-20T13:07:45;101827.38;;;7.45;100.00
28004;BME280;15330;51.234;6.754;2023-02-20T13:10:27;101833.78;;;7.54;100.00
28004;BME280;15330;51.234;6.754;2023-02-20T13:12:55;101836.94;;;7.59;100.00
28004;BME280;15330;51.234;6.754;2023-02-20T13:18:31;101807.16;;;7.43;100.00
28004;BME280;15330;51.234;6.754;2023-02-20T13:21:10;101798.19;;;7.44;100.00
28004;BME280;15330;51.234;6.754;2023-02-20T13:23:38;101802.44;;;7.46;100.00
28004;BME280;15330;51.234;6.754;2023-02-20T13:28:52;101788.44;;;7.66;100.00
28004;BME280;15330;51.234;6.754;2023-02-20T13:47:02;101745.19;;;7.63;100.00
28004;BME280;15330;51.234;6.754;2023-02-20T13:52:41;101746.50;;;7.91;100.00
28004;BME280;15330;51.234;6.754;2023-02-20T14:02:47;101731.25;;;7.82;100.00
28004;BME280;15330;51.234;6.754;2023-02-20T14:05:19;101731.66;;;7.77;100.00
28004;BME280;15330;51.234;6.754;2023-02-20T14:07:45;101744.34;;;7.85;100.00
28004;BME280;15330;51.234;6.754;2023-02-20T14:10:27;101743.63;;;7.83;100.00
28004;BME280;15330;51.234;6.754;2023-02-20T14:15:23;101711.28;;;7.87;100.00
28004;BME280;15330;51.234;6.754;2023-02-20T14:17:51;101723.97;;;7.95;100.00
28004;BME280;15330;51.234;6.754;2023-02-20T14:20:25;101726.53;;;7.96;100.00
28004;BME280;15330;51.234;6.754;2023-02-20T14:23:08;101729.56;;;7.92;100.00
28004;BME280;15330;51.234;6.754;2023-02-20T14:25:35;101735.59;;;7.94;100.00
28004;BME280;15330;51.234;6.754;2023-02-20T14:28:13;101740.84;;;7.84;100.00
28004;BME280;15330;51.234;6.754;2023-02-20T14:30:39;101748.72;;;7.86;100.00
28004;BME280;15330;51.234;6.754;2023-02-20T14:33:20;101744.44;;;7.94;100.00
28004;BME280;15330;51.234;6.754;2023-02-20T14:36:00;101731.16;;;7.83;100.00
28004;BME280;15330;51.234;6.754;2023-02-20T14:38:53;101717.38;;;7.78;100.00
28004;BME280;15330;51.234;6.754;2023-02-20T14:41:23;101733.56;;;7.86;100.00
28004;BME280;15330;51.234;6.754;2023-02-20T14:43:55;101745.66;;;7.90;100.00
28004;BME280;15330;51.234;6.754;2023-02-20T14:46:26;101747.97;;;7.95;100.00
28004;BME280;15330;51.234;6.754;2023-02-20T14:49:21;101736.81;;;7.90;100.00
28004;BME280;15330;51.234;6.754;2023-02-20T14:51:47;101732.34;;;7.90;100.00
28004;BME280;15330;51.234;6.754;2023-02-20T14:56:38;101735.72;;;7.92;100.00
28004;BME280;15330;51.234;6.754;2023-02-20T15:01:40;101740.47;;;7.89;100.00
28004;BME280;15330;51.234;6.754;2023-02-20T15:04:14;101730.06;;;7.86;100.00
28004;BME280;15330;51.234;6.754;2023-02-20T15:06:43;101717.44;;;7.99;100.00
28004;BME280;15330;51.234;6.754;2023-02-20T15:09:10;101719.41;;;7.86;100.00
28004;BME280;15330;51.234;6.754;2023-02-20T15:11:45;101724.84;;;7.95;100.00
28004;BME280;15330;51.234;6.754;2023-02-20T15:14:20;101731.13;;;7.94;100.00
28004;BME280;15330;51.234;6.754;2023-02-20T15:16:46;101732.22;;;7.92;100.00
28004;BME280;15330;51.234;6.754;2023-02-20T15:19:33;101721.31;;;7.95;100.00
28004;BME280;15330;51.234;6.754;2023-02-20T15:21:59;101727.84;;;8.02;100.00